Latest Weather Observations for Truscott

IDW60801

Issued at 8:02 pm WST Tuesday 27 January 2015 (issued every 30 minutes, with the page automatically refreshed every 10 minutes)

About weather observations | Map of weather stations | Latest weather observations for WA | Other Formats
Station Details ID: 001020 Name: TRUSCOTT Lat: -14.09 Lon: 126.39 Height: 51.0 m
Data from the previous 72 hours. | See also: Recent months at Truscott
Date/Time
WST
Temp
°C
App
Temp
°C
Dew
Point
Rel
Hum
%
Delta-T
°C
Wind Press
QNH
hPa
Press
MSL
hPa
Rain
since 9 am
mm
Dir
 
Spd
km/h
Gust
km/h
Spd
kts
Gust
kts
27/08:00pm 24.0 28.5 24.0 100 0.0 E 7 11 4 6 1007.0 - 32.2
27/07:30pm 24.0 28.7 24.0 100 0.0 SSE 6 6 3 3 1007.0 - 32.2
27/07:00pm 24.0 27.8 24.0 100 0.0 S 11 - 6 - 1008.0 - 32.0
27/06:59pm 24.0 27.8 24.0 100 0.0 S 11 - 6 - 1008.0 - 32.0
27/06:50pm 24.0 28.1 24.0 100 0.0 S 9 - 5 - 1008.0 - 31.6
27/06:36pm 24.0 26.2 24.0 100 0.0 S 19 - 10 - 1008.0 - 29.4
27/06:30pm 24.0 26.0 24.0 100 0.0 SSW 20 - 11 - 1008.0 - 24.8
27/06:28pm 24.0 26.0 24.0 100 0.0 SSW 20 - 11 - 1008.0 - 23.4
27/06:26pm 24.0 26.2 24.0 100 0.0 SSW 19 - 10 - 1008.0 - 21.4
27/06:25pm 24.0 26.2 24.0 100 0.0 SSW 19 - 10 - 1008.0 - 21.4
27/06:00pm 23.3 22.7 23.3 100 0.0 S 32 35 17 19 1008.0 1007.4 17.2
27/05:58pm 23.0 22.0 23.0 100 0.0 S 33 - 18 - 1008.0 - 15.8
27/05:48pm 24.0 23.2 23.0 94 0.7 S 32 - 17 - 1007.0 - 2.8
27/05:30pm 26.0 27.7 21.0 74 3.3 SSE 13 - 7 - 1006.0 - 0.0
27/05:00pm 30.0 33.2 25.0 74 3.5 W 17 - 9 - 1005.0 - 0.0
27/04:30pm 29.0 34.5 24.0 74 3.5 N 2 - 1 - 1004.0 - 0.0
27/04:00pm 30.0 34.1 24.0 70 4.2 W 9 - 5 - 1004.0 - 0.0
27/03:30pm 30.0 33.8 24.0 70 4.2 SW 11 - 6 - 1003.0 - 0.0
27/03:00pm 29.4 31.9 22.4 66 4.8 S 13 - 7 - 1004.0 1003.8 0.0
27/02:30pm 31.0 33.2 24.0 66 4.9 SW 19 - 10 - 1004.0 - 0.0
27/02:00pm 32.0 33.7 24.0 62 5.6 W 22 - 12 - 1004.0 - 0.0
27/01:30pm 32.0 34.0 24.0 62 5.6 WNW 20 - 11 - 1004.0 - 0.0
27/01:00pm 32.0 34.0 24.0 62 5.6 W 20 - 11 - 1004.0 - 0.0
27/12:30pm 32.0 33.1 23.0 59 6.2 WNW 22 - 12 - 1005.0 - 0.0
27/12:00pm 31.7 33.3 23.2 60 5.9 WNW 20 - 11 - 1006.0 1005.4 0.0
27/11:30am 31.0 32.5 23.0 62 5.5 W 20 - 11 - 1006.0 - 0.0
27/11:00am 31.0 33.2 24.0 66 4.9 WNW 19 - 10 - 1007.0 - 0.0
27/10:30am 31.0 32.7 23.0 62 5.5 WNW 19 - 10 - 1007.0 - 0.0
27/10:00am 32.0 34.4 23.0 59 6.2 SW 15 20 8 11 1008.0 - 0.0
27/09:30am 31.0 33.4 23.0 62 5.5 SW 15 - 8 - 1008.0 - 0.0
27/09:00am 30.5 33.0 23.2 65 5.0 SW 15 - 8 - 1008.0 1007.9 0.2
27/08:30am 30.0 32.0 23.0 66 4.8 SSW 17 - 9 - 1008.0 - 0.2
27/08:00am 30.0 33.4 24.0 70 4.2 SW 13 - 7 - 1008.0 - 0.2
27/07:30am 29.0 32.8 24.0 74 3.5 SW 11 13 6 7 1008.0 - 0.2
27/07:00am 28.0 31.6 23.0 74 3.4 SSW 9 - 5 - 1008.0 - 0.2
27/06:30am 27.0 30.2 23.0 79 2.7 S 11 - 6 - 1008.0 - 0.2
27/06:00am 26.1 28.7 22.6 81 2.4 S 13 17 7 9 1008.0 1007.8 0.2
27/05:30am 26.0 29.2 23.0 83 2.0 S 11 - 6 - 1007.0 - 0.2
27/05:00am 24.0 28.5 23.0 94 0.7 S 4 - 2 - 1007.0 - 0.2
27/04:30am 25.0 28.6 22.0 83 2.0 S 6 - 3 - 1006.0 - 0.2
27/04:00am 25.0 28.4 22.0 83 2.0 S 7 - 4 - 1006.0 - 0.2
27/03:30am 25.0 28.4 22.0 83 2.0 S 7 - 4 - 1006.0 - 0.2
27/03:00am 25.2 28.2 21.9 82 2.2 SSW 9 - 5 - 1005.0 1005.3 0.2
27/02:30am 26.0 29.4 22.0 78 2.7 SSW 7 - 4 - 1005.0 - 0.2
27/02:00am 26.0 29.9 23.0 83 2.0 SSW 7 - 4 - 1005.0 - 0.2
27/01:30am 26.0 30.1 23.0 83 2.0 WSW 6 - 3 - 1005.0 - 0.2
27/01:00am 25.0 29.1 23.0 89 1.4 WNW 6 - 3 - 1006.0 - 0.2
27/12:30am 25.0 29.9 23.0 89 1.4 N 2 - 1 - 1006.0 - 0.2
27/12:25am 25.0 29.5 23.0 89 1.4 N 4 - 2 - 1006.0 - 0.2
27/12:11am 25.0 30.3 23.0 89 1.4 CALM 0 - 0 - 1006.0 - 0.2
27/12:00am 24.7 29.1 22.8 89 1.3 WNW 4 0 2 0 1006.0 1006.2 0.2
 
Date/Time
WST
Temp
°C
App
Temp
°C
Dew
Point
Rel
Hum
%
Delta-T
°C
Wind Press
QNH
hPa
Press
MSL
hPa
Rain
since 9 am
mm
Dir
 
Spd
km/h
Gust
km/h
Spd
kts
Gust
kts
26/11:30pm 25.0 29.1 23.0 89 1.4 NNW 6 - 3 - 1007.0 - 0.2
26/11:00pm 25.0 28.6 22.0 83 2.0 W 6 - 3 - 1008.0 - 0.2
26/10:30pm 26.0 28.5 21.0 74 3.3 SSW 9 - 5 - 1008.0 - 0.2
26/10:00pm 26.0 28.5 21.0 74 3.3 SSW 9 - 5 - 1008.0 - 0.2
26/09:30pm 27.0 30.0 22.0 74 3.4 SSE 9 - 5 - 1009.0 - 0.2
26/09:00pm 26.9 30.2 22.5 77 3.0 ESE 9 - 5 - 1008.0 1008.3 0.2
26/08:30pm 27.0 27.9 22.0 74 3.4 S 20 - 11 - 1009.0 - 0.2
26/08:00pm 28.0 29.9 22.0 70 4.0 SSW 15 - 8 - 1009.0 - 0.2
26/07:30pm 28.0 29.7 23.0 74 3.4 SW 19 - 10 - 1008.0 - 0.2
26/07:00pm 29.0 32.2 25.0 79 2.8 WSW 17 - 9 - 1008.0 - 0.2
26/06:30pm 29.0 31.8 25.0 79 2.8 WSW 19 - 10 - 1007.0 - 0.2
26/06:00pm 28.6 32.5 24.2 77 3.1 W 11 - 6 - 1007.0 1006.5 0.2
26/05:30pm 29.0 31.4 23.0 70 4.1 W 15 - 8 - 1006.0 - 0.2
26/05:00pm 28.0 31.0 22.0 70 4.0 NE 9 - 5 - 1006.0 - 0.2
26/04:30pm 28.0 29.0 21.0 65 4.7 ENE 17 - 9 - 1006.0 - 0.2
26/04:00pm 32.0 35.4 24.0 62 5.6 W 13 - 7 - 1005.0 - 0.2
26/03:30pm 31.0 33.0 23.0 62 5.5 W 17 - 9 - 1005.0 - 0.2
26/03:00pm 31.3 33.4 23.7 64 5.3 W 19 - 10 - 1005.0 1004.6 0.2
26/02:30pm 32.0 33.7 23.0 59 6.2 W 19 - 10 - 1005.0 - 0.2
26/02:00pm 32.0 34.6 24.0 62 5.6 W 17 - 9 - 1006.0 - 0.2
26/01:30pm 32.0 34.2 24.0 62 5.6 W 19 - 10 - 1006.0 - 0.2
26/01:00pm 31.0 33.6 24.0 66 4.9 W 17 - 9 - 1007.0 - 0.2
26/12:30pm 30.0 32.8 25.0 74 3.5 WSW 19 - 10 - 1007.0 - 0.2
26/12:00pm 30.2 34.0 25.3 75 3.5 W 15 - 8 - 1008.0 1007.5 0.2
26/11:30am 30.0 33.6 25.0 74 3.5 SW 15 - 8 - 1008.0 - 0.2
26/11:00am 30.0 34.9 27.0 84 2.2 SW 15 - 8 - 1008.0 - 0.0
26/10:30am 28.0 34.0 28.0 100 0.0 SW 13 - 7 - 1009.0 - 0.0
26/10:00am 28.0 35.1 28.0 100 0.0 W 7 - 4 - 1009.0 - 0.0
26/09:30am 26.0 31.4 26.0 100 0.0 SSW 9 - 5 - 1009.0 - 0.0
26/09:00am 24.3 29.2 24.3 100 0.0 S 6 - 3 - 1010.0 1009.4 40.8
26/08:44am 24.0 28.5 24.0 100 0.0 NNE 7 - 4 - 1010.0 - 40.4
26/08:30am 24.0 28.1 24.0 100 0.0 NE 9 - 5 - 1010.0 - 39.6
26/08:09am 25.0 27.7 25.0 100 0.0 SSE 20 - 11 - 1010.0 - 27.4
26/08:00am 25.0 26.3 24.0 94 0.7 S 24 - 13 - 1010.0 - 8.2
26/07:59am 26.0 27.3 24.0 89 1.4 S 24 - 13 - 1010.0 - 6.0
26/07:31am 28.0 31.9 26.0 89 1.4 WNW 17 - 9 - 1009.0 - 4.0
26/07:30am 28.0 31.9 26.0 89 1.4 WNW 17 - 9 - 1009.0 - 4.0
26/07:21am 28.0 32.6 26.0 89 1.4 NW 13 - 7 - 1009.0 - 3.8
26/07:11am 28.0 32.2 26.0 89 1.4 W 15 - 8 - 1009.0 - 3.0
26/07:06am 28.0 31.9 26.0 89 1.4 W 17 - 9 - 1009.0 - 1.0
26/07:00am 29.0 33.2 26.0 84 2.1 W 15 - 8 - 1009.0 - 0.0
26/06:30am 29.0 33.6 26.0 84 2.1 WNW 13 - 7 - 1009.0 - 0.0
26/06:00am 28.3 33.0 25.5 85 2.0 W 11 - 6 - 1009.0 1008.4 0.0
26/05:30am 28.0 32.4 25.0 84 2.1 W 11 - 6 - 1008.0 - 0.0
26/05:00am 28.0 33.0 26.0 89 1.4 W 11 - 6 - 1008.0 - 0.0
26/04:30am 28.0 33.4 26.0 89 1.4 W 9 - 5 - 1007.0 - 0.0
26/04:00am 28.0 32.6 26.0 89 1.4 W 13 - 7 - 1007.0 - 0.0
26/03:48am 28.0 32.6 26.0 89 1.4 W 13 - 7 - 1007.0 - 0.0
26/03:30am 28.0 32.6 26.0 89 1.4 W 13 - 7 - 1007.0 - 0.0
26/03:20am 28.0 32.2 26.0 89 1.4 W 15 - 8 - 1007.0 - 0.0
26/03:00am 28.4 33.3 25.8 86 1.8 W 11 - 6 - 1007.0 1006.7 0.0
26/02:31am 28.0 33.0 26.0 89 1.4 W 11 - 6 - 1007.0 - 0.0
26/02:30am 28.0 33.0 26.0 89 1.4 W 11 - 6 - 1007.0 - 0.0
26/02:00am 28.0 32.6 26.0 89 1.4 W 13 - 7 - 1007.0 - 0.0
26/01:30am 28.0 33.0 26.0 89 1.4 W 11 - 6 - 1007.0 - 0.0
26/01:00am 28.0 33.0 26.0 89 1.4 W 11 - 6 - 1007.0 - 0.0
26/12:30am 28.0 32.6 26.0 89 1.4 W 13 - 7 - 1007.0 - 0.0
26/12:09am 28.0 32.6 26.0 89 1.4 W 13 - 7 - 1008.0 - 0.0
26/12:00am 28.4 32.8 25.6 85 2.0 W 13 - 7 - 1008.0 1007.6 0.0
 
Date/Time
WST
Temp
°C
App
Temp
°C
Dew
Point
Rel
Hum
%
Delta-T
°C
Wind Press
QNH
hPa
Press
MSL
hPa
Rain
since 9 am
mm
Dir
 
Spd
km/h
Gust
km/h
Spd
kts
Gust
kts
25/11:47pm 28.0 33.0 26.0 89 1.4 W 11 - 6 - 1008.0 - 0.0
25/11:30pm 28.0 32.2 26.0 89 1.4 WNW 15 - 8 - 1008.0 - 0.0
25/11:05pm 28.0 33.4 26.0 89 1.4 NW 9 - 5 - 1008.0 - 0.0
25/11:00pm 28.0 33.4 26.0 89 1.4 WNW 9 - 5 - 1008.0 - 0.0
25/10:30pm 28.0 33.4 26.0 89 1.4 W 9 - 5 - 1009.0 - 0.0
25/10:00pm 29.0 33.2 26.0 84 2.1 W 15 - 8 - 1008.0 - 0.0
25/09:30pm 29.0 34.0 26.0 84 2.1 W 11 - 6 - 1008.0 - 0.0
25/09:00pm 28.7 34.1 25.5 83 2.3 W 7 - 4 - 1008.0 1007.9 0.0
25/08:30pm 29.0 34.0 26.0 84 2.1 W 11 - 6 - 1008.0 - 0.0
25/08:00pm 29.0 33.6 26.0 84 2.1 WNW 13 - 7 - 1007.0 - 0.0
25/07:30pm 29.0 33.2 26.0 84 2.1 WNW 15 - 8 - 1007.0 - 0.0
25/07:00pm 29.0 33.2 26.0 84 2.1 W 15 - 8 - 1007.0 - 0.0
25/06:30pm 30.0 35.0 26.0 79 2.8 W 11 - 6 - 1007.0 - 0.0
25/06:00pm 30.1 34.3 25.4 76 3.3 W 13 - 7 - 1007.0 1006.9 0.0
25/05:30pm 31.0 34.6 25.0 70 4.2 WSW 15 - 8 - 1006.0 - 0.0
25/05:00pm 31.0 34.2 25.0 70 4.2 W 17 - 9 - 1006.0 - 0.0
25/04:30pm 32.0 34.0 24.0 62 5.6 W 20 - 11 - 1006.0 - 0.0
25/04:00pm 32.0 34.3 25.0 66 4.9 W 22 - 12 - 1005.0 - 0.0
25/03:30pm 32.0 33.3 24.0 62 5.6 W 24 - 13 - 1005.0 - 0.0
25/03:00pm 32.5 34.0 24.3 62 5.8 W 24 - 13 - 1005.0 1005.2 0.0
25/02:30pm 32.0 32.9 24.0 62 5.6 W 26 - 14 - 1006.0 - 0.0
25/02:00pm 33.0 34.3 24.0 59 6.3 W 24 - 13 - 1007.0 - 0.0
25/01:30pm 32.0 34.3 25.0 66 4.9 W 22 - 12 - 1007.0 - 0.0
25/01:00pm 32.0 33.5 25.0 66 4.9 W 26 - 14 - 1008.0 - 0.0
25/12:30pm 32.0 33.9 25.0 66 4.9 WNW 24 - 13 - 1008.0 - 0.0
25/12:00pm 32.2 33.7 23.7 61 5.9 W 22 - 12 - 1009.0 1008.4 0.0
25/11:30am 32.0 33.7 24.0 62 5.6 W 22 - 12 - 1009.0 - 0.0
25/11:00am 32.0 32.7 23.0 59 6.2 W 24 - 13 - 1009.0 - 0.0
25/10:30am 31.0 31.9 24.0 66 4.9 WSW 26 - 14 - 1009.0 - 0.0
25/10:00am 31.0 32.7 24.0 66 4.9 W 22 - 12 - 1009.0 - 0.0
25/09:30am 31.0 32.7 24.0 66 4.9 W 22 - 12 - 1009.0 - 0.0
25/09:00am 31.0 33.6 24.6 68 4.5 W 19 - 10 - 1009.0 1009.2 0.0
25/08:30am 30.0 32.3 25.0 74 3.5 WNW 22 - 12 - 1009.0 - 0.0
25/08:00am 30.0 33.2 25.0 74 3.5 W 17 - 9 - 1009.0 - 0.0
25/07:56am 30.0 33.2 25.0 74 3.5 W 17 - 9 - 1009.0 - 0.0
25/07:30am 29.0 33.2 26.0 84 2.1 W 15 - 8 - 1009.0 - 0.0
25/07:26am 30.0 34.2 26.0 79 2.8 WNW 15 - 8 - 1008.0 - 0.0
25/07:00am 29.0 32.9 26.0 84 2.1 WNW 17 - 9 - 1008.0 - 0.0
25/06:30am 29.0 33.6 26.0 84 2.1 WNW 13 - 7 - 1008.0 - 0.0
25/06:00am 28.3 33.8 26.1 88 1.6 WNW 9 - 5 - 1008.0 1007.4 0.0
25/05:30am 28.0 33.0 26.0 89 1.4 WNW 11 - 6 - 1007.0 - 0.0
25/05:00am 28.0 33.0 26.0 89 1.4 W 11 - 6 - 1007.0 - 0.0
25/04:46am 28.0 33.0 26.0 89 1.4 W 11 - 6 - 1007.0 - 0.0
25/04:30am 28.0 33.0 26.0 89 1.4 W 11 - 6 - 1006.0 - 0.0
25/04:28am 28.0 33.0 26.0 89 1.4 WNW 11 - 6 - 1006.0 - 0.0
25/04:00am 28.0 33.0 26.0 89 1.4 WNW 11 - 6 - 1006.0 - 0.0
25/03:30am 28.0 33.4 26.0 89 1.4 WNW 9 - 5 - 1006.0 - 0.0
25/03:00am 28.4 33.3 25.8 86 1.8 W 11 - 6 - 1006.0 1005.4 0.0
25/02:30am 29.0 32.6 25.0 79 2.8 W 15 - 8 - 1006.0 - 0.0
25/02:00am 29.0 32.9 26.0 84 2.1 W 17 - 9 - 1005.0 - 0.0
25/01:30am 29.0 33.2 26.0 84 2.1 W 15 - 8 - 1006.0 - 0.0
25/01:00am 29.0 32.9 26.0 84 2.1 W 17 - 9 - 1007.0 - 0.0
25/12:30am 29.0 32.2 25.0 79 2.8 W 17 - 9 - 1007.0 - 0.0
25/12:00am 28.7 32.6 24.9 80 2.7 W 13 - 7 - 1007.0 1006.9 0.0
 
Date/Time
WST
Temp
°C
App
Temp
°C
Dew
Point
Rel
Hum
%
Delta-T
°C
Wind Press
QNH
hPa
Press
MSL
hPa
Rain
since 9 am
mm
Dir
 
Spd
km/h
Gust
km/h
Spd
kts
Gust
kts
24/11:30pm 29.0 32.6 25.0 79 2.8 W 15 - 8 - 1007.0 - 0.0
24/11:00pm 29.0 32.6 25.0 79 2.8 W 15 - 8 - 1008.0 - 0.0
24/10:30pm 29.0 32.2 25.0 79 2.8 W 17 - 9 - 1008.0 - 0.0
24/10:13pm 29.0 32.2 25.0 79 2.8 W 17 - 9 - 1008.0 - 0.0
24/10:00pm 29.0 33.6 26.0 84 2.1 W 13 - 7 - 1008.0 - 0.0
24/09:47pm 29.0 32.9 26.0 84 2.1 W 17 - 9 - 1008.0 - 0.0
24/09:30pm 29.0 32.3 26.0 84 2.1 W 20 - 11 - 1008.0 - 0.0
24/09:00pm 28.9 33.0 25.7 83 2.3 W 15 - 8 - 1008.0 1007.7 0.0
24/08:30pm 29.0 32.5 26.0 84 2.1 W 19 - 10 - 1008.0 - 0.0

Other Formats:

Comma delimited format used in spreadsheet applications
http://www.bom.gov.au/fwo/IDW60801/IDW60801.95101.axf

JavaScript Object Notation format (JSON) in row-major order
http://www.bom.gov.au/fwo/IDW60801/IDW60801.95101.json